Time;durP1;ratioP1;P1;durP2;ratioP2;P2;SDS_P1;SDS_P2;PMS_P1;PMS_P2;Temp;Humidity;BMP_temperature;BMP_pressure;BME280_temperature;BME280_humidity;BME280_pressure;Samples;Min_cycle;Max_cycle;Signal;HPM_P1;HPM_P2
2022/03/24 00:02:21;;;;;;;31.50;17.55;;;;;;;11.31;34.00;103032.31;5095088;28;20020;-71
2022/03/24 00:04:47;;;;;;;31.98;17.70;;;;;;;10.96;34.02;103030.16;5099246;28;20541;-71
2022/03/24 00:07:12;;;;;;;34.33;17.42;;;;;;;10.45;36.88;103032.75;5084589;28;20028;-72
2022/03/24 00:09:38;;;;;;;34.35;18.15;;;;;;;10.65;35.77;103022.69;5103771;28;20027;-72
2022/03/24 00:12:03;;;;;;;29.40;16.02;;;;;;;10.58;36.95;103024.59;5104545;28;20123;-72
2022/03/24 00:14:29;;;;;;;29.77;17.83;;;;;;;10.72;36.35;103022.69;5099871;28;20396;-72
2022/03/24 00:16:54;;;;;;;33.35;16.88;;;;;;;10.69;36.26;103023.94;5103258;28;20032;-72
2022/03/24 00:19:22;;;;;;;45.97;19.42;;;;;;;10.69;35.53;103021.22;5097925;28;20123;-72
2022/03/24 00:21:47;;;;;;;38.47;18.23;;;;;;;10.58;34.81;103011.03;5093698;28;20489;-71
2022/03/24 00:24:13;;;;;;;34.35;16.77;;;;;;;10.40;35.94;103019.81;5093934;28;20024;-71
2022/03/24 00:26:38;;;;;;;29.13;15.77;;;;;;;10.35;35.61;103024.19;5093708;28;20105;-72
2022/03/24 00:29:04;;;;;;;30.73;18.00;;;;;;;10.43;35.46;103013.94;5093998;28;20081;-72
2022/03/24 00:31:30;;;;;;;30.65;17.90;;;;;;;10.45;35.60;103016.47;5093690;28;20063;-71
2022/03/24 00:33:56;;;;;;;34.80;17.17;;;;;;;10.46;35.78;103013.53;5093647;28;20445;-72
2022/03/24 00:36:22;;;;;;;27.50;17.02;;;;;;;10.34;36.41;103012.50;5093437;28;20108;-71
2022/03/24 00:38:52;;;;;;;33.42;16.98;;;;;;;10.25;35.45;103018.34;5093660;28;20085;-72
2022/03/24 00:41:21;;;;;;;43.05;17.77;;;;;;;10.28;35.43;103007.91;5093983;28;20115;-71
2022/03/24 00:43:48;;;;;;;32.60;18.52;;;;;;;10.26;35.72;103014.59;5093400;28;20028;-72
2022/03/24 00:46:18;;;;;;;39.55;15.98;;;;;;;10.10;35.88;103018.56;5108483;28;20031;-72
2022/03/24 00:48:44;;;;;;;35.00;16.85;;;;;;;10.07;34.72;103005.44;5086610;28;20032;-72
2022/03/24 00:51:09;;;;;;;27.65;16.02;;;;;;;10.28;36.26;103007.06;5093472;28;20039;-73
2022/03/24 00:53:34;;;;;;;31.05;17.88;;;;;;;9.95;37.01;103004.38;5092763;28;20623;-70
2022/03/24 00:56:00;;;;;;;33.70;17.77;;;;;;;9.88;38.00;103008.94;5092554;28;20449;-71
2022/03/24 00:58:25;;;;;;;28.50;17.83;;;;;;;10.00;37.16;103004.56;5092089;28;20493;-72
2022/03/24 01:00:54;;;;;;;37.22;16.95;;;;;;;9.93;36.88;103011.88;5092019;28;20043;-71
2022/03/24 01:03:19;;;;;;;40.97;16.95;;;;;;;10.01;37.37;103010.84;5092330;28;20039;-71
2022/03/24 01:05:47;;;;;;;32.35;18.08;;;;;;;9.65;38.52;103003.91;5092002;28;20028;-71
2022/03/24 01:08:16;;;;;;;37.42;17.42;;;;;;;9.96;38.12;103008.75;5092229;28;20028;-72
2022/03/24 01:10:42;;;;;;;32.47;15.38;;;;;;;10.13;37.44;103006.47;5091967;28;20036;-71
2022/03/24 01:13:09;;;;;;;32.22;16.88;;;;;;;9.78;38.83;103003.94;5091937;28;20043;-72
2022/03/24 01:15:35;;;;;;;33.80;17.55;;;;;;;9.85;38.78;103003.94;5091367;28;20120;-71
2022/03/24 01:18:01;;;;;;;31.15;15.95;;;;;;;9.81;38.50;102997.28;5091581;28;20036;-71
2022/03/24 01:20:28;;;;;;;34.35;16.00;;;;;;;9.81;38.99;102992.69;5092848;28;20426;-72
2022/03/24 01:22:54;;;;;;;28.02;15.50;;;;;;;9.69;39.27;102994.34;5091908;28;20059;-72
2022/03/24 01:25:20;;;;;;;27.40;16.77;;;;;;;9.62;38.97;102998.09;5091493;28;20066;-73
2022/03/24 01:27:46;;;;;;;35.83;16.40;;;;;;;9.38;37.06;102994.03;5091175;28;20063;-71
2022/03/24 01:30:12;;;;;;;40.72;17.70;;;;;;;9.40;37.73;102994.66;5091603;28;20036;-71
2022/03/24 01:32:38;;;;;;;29.17;16.52;;;;;;;9.52;37.16;102987.66;5091488;28;20032;-71
2022/03/24 01:35:07;;;;;;;32.72;15.50;;;;;;;9.77;37.75;102996.00;5091932;28;20077;-71
2022/03/24 01:37:34;;;;;;;31.73;15.82;;;;;;;9.77;37.83;102985.16;5074978;28;20049;-71
2022/03/24 01:39:59;;;;;;;29.90;16.35;;;;;;;9.37;37.74;102986.94;5071430;28;20680;-70
2022/03/24 01:42:26;;;;;;;31.42;15.80;;;;;;;9.29;38.78;102986.31;5101402;28;20039;-72
2022/03/24 01:44:55;;;;;;;31.10;17.15;;;;;;;9.20;38.52;102982.94;5111222;28;20028;-72
2022/03/24 01:47:21;;;;;;;32.85;16.48;;;;;;;9.24;38.67;102972.53;5112132;28;20034;-72
2022/03/24 01:49:47;;;;;;;29.23;16.10;;;;;;;9.15;38.34;102973.75;5093730;28;20361;-72
2022/03/24 01:52:14;;;;;;;26.95;15.52;;;;;;;8.98;37.98;102981.38;5091322;28;20052;-71
2022/03/24 01:54:42;;;;;;;23.90;15.75;;;;;;;9.10;38.73;102973.50;5091042;28;20039;-72
2022/03/24 01:57:10;;;;;;;29.30;17.08;;;;;;;9.17;39.25;102974.38;5090991;28;20039;-71
2022/03/24 01:59:37;;;;;;;34.05;17.05;;;;;;;9.08;39.65;102968.31;5090898;28;20469;-70
2022/03/24 02:02:06;;;;;;;31.10;18.20;;;;;;;9.07;38.54;102974.78;5091544;28;20028;-72
2022/03/24 02:04:35;;;;;;;31.35;17.13;;;;;;;8.97;37.84;102968.91;5091018;28;20071;-73
2022/03/24 02:07:05;;;;;;;31.83;17.13;;;;;;;9.01;39.31;102967.47;5091217;28;20036;-71
2022/03/24 02:09:31;;;;;;;29.38;16.83;;;;;;;8.99;39.24;102969.53;5090937;28;20468;-71
2022/03/24 02:11:57;;;;;;;28.45;15.40;;;;;;;9.03;37.14;102965.38;5090930;28;20127;-72
2022/03/24 02:14:22;;;;;;;28.38;15.57;;;;;;;9.08;39.08;102962.03;5091069;28;20051;-72
2022/03/24 02:16:49;;;;;;;30.35;15.90;;;;;;;9.06;37.30;102961.41;5090903;28;20032;-71
2022/03/24 02:19:21;;;;;;;34.53;17.10;;;;;;;8.93;37.07;102960.34;5091021;28;20032;-71
2022/03/24 02:21:49;;;;;;;34.80;15.90;;;;;;;8.85;37.28;102965.94;5090310;28;20128;-71
2022/03/24 02:24:17;;;;;;;34.33;16.00;;;;;;;8.87;37.98;102961.16;5090413;28;20519;-72
2022/03/24 02:26:44;;;;;;;26.13;15.07;;;;;;;8.78;36.22;102956.94;5090067;28;20366;-73
2022/03/24 02:29:11;;;;;;;29.80;15.50;;;;;;;8.73;36.22;102959.41;5089817;28;20039;-72
2022/03/24 02:31:38;;;;;;;27.98;15.55;;;;;;;8.70;36.91;102954.41;5090286;28;20034;-71
2022/03/24 02:36:53;;;;;;;38.30;17.23;;;;;;;8.75;37.04;102951.94;5080180;28;20070;-71
2022/03/24 02:39:18;;;;;;;28.45;16.40;;;;;;;8.68;37.19;102958.38;5071692;28;20036;-73
2022/03/24 02:41:51;;;;;;;33.55;15.73;;;;;;;8.66;37.84;102957.72;5090385;28;20111;-72
2022/03/24 02:44:17;;;;;;;28.63;16.83;;;;;;;8.58;36.96;102963.31;5090738;28;20437;-72
2022/03/24 02:46:47;;;;;;;32.75;16.50;;;;;;;8.56;39.97;102959.97;5090118;28;20059;-72
2022/03/24 02:49:13;;;;;;;30.80;16.48;;;;;;;8.59;39.92;102957.69;5090100;28;20028;-72
2022/03/24 02:51:39;;;;;;;29.15;17.30;;;;;;;8.47;39.77;102967.38;5090155;28;20404;-72
2022/03/24 02:54:04;;;;;;;31.08;16.60;;;;;;;8.35;41.10;102968.16;5090724;28;20043;-71
2022/03/24 02:56:30;;;;;;;34.42;16.50;;;;;;;8.52;41.58;102962.22;5072095;28;20047;-72
2022/03/24 02:58:56;;;;;;;28.50;16.55;;;;;;;8.75;40.69;102956.50;5090514;28;20044;-72
2022/03/24 03:01:25;;;;;;;24.45;15.75;;;;;;;8.64;41.25;102957.91;5090977;28;20243;-71
2022/03/24 03:03:52;;;;;;;42.08;17.10;;;;;;;8.59;41.26;102954.97;5090203;28;20067;-72
2022/03/24 03:06:18;;;;;;;29.25;17.17;;;;;;;8.60;41.07;102963.94;5090414;28;20060;-73
2022/03/24 03:08:44;;;;;;;33.13;19.10;;;;;;;7.46;44.86;102958.00;5090337;28;20075;-71
2022/03/24 03:11:09;;;;;;;41.10;19.30;;;;;;;7.96;43.44;102961.38;5090582;28;20453;-71
2022/03/24 03:13:35;;;;;;;26.85;16.88;;;;;;;8.34;42.40;102958.34;5090081;28;20028;-72
2022/03/24 03:16:00;;;;;;;40.53;20.23;;;;;;;6.90;45.70;102963.16;5090395;28;20073;-72
2022/03/24 03:18:25;;;;;;;38.35;19.25;;;;;;;7.85;42.43;102961.94;5090030;28;20550;-72
2022/03/24 03:20:51;;;;;;;33.78;18.58;;;;;;;7.77;43.55;102961.22;5090043;28;20102;-72
2022/03/24 03:23:18;;;;;;;33.58;20.10;;;;;;;7.95;41.85;102959.69;5090957;28;20056;-71
2022/03/24 03:25:43;;;;;;;35.92;19.70;;;;;;;8.46;41.19;102960.31;5089787;28;20160;-71
2022/03/24 03:28:09;;;;;;;36.22;19.08;;;;;;;8.28;42.08;102953.75;5089825;28;20500;-72
2022/03/24 03:30:34;;;;;;;32.28;18.15;;;;;;;8.08;43.04;102959.81;5089783;28;20060;-71
2022/03/24 03:32:59;;;;;;;33.83;18.98;;;;;;;8.16;42.40;102958.00;5090327;28;20088;-70
2022/03/24 03:35:27;;;;;;;35.22;19.60;;;;;;;8.41;41.88;102954.66;5090180;28;20478;-71
2022/03/24 03:37:52;;;;;;;38.55;20.67;;;;;;;8.13;41.99;102961.94;5089845;28;20444;-71
2022/03/24 03:40:17;;;;;;;39.15;20.15;;;;;;;7.82;43.45;102962.31;5090429;28;20150;-72
2022/03/24 03:42:43;;;;;;;36.90;20.15;;;;;;;7.89;43.44;102956.97;5093685;28;20044;-72
2022/03/24 03:45:08;;;;;;;38.33;19.50;;;;;;;7.66;44.35;102961.75;5093532;28;20457;-71
2022/03/24 03:47:33;;;;;;;37.08;20.10;;;;;;;8.04;42.79;102963.09;5094250;28;20023;-72
2022/03/24 03:49:59;;;;;;;31.98;18.95;;;;;;;7.94;42.85;102958.03;5093718;28;20123;-72
2022/03/24 03:52:24;;;;;;;31.45;19.42;;;;;;;7.99;43.06;102960.97;5093986;28;20119;-73
2022/03/24 03:54:50;;;;;;;38.45;21.77;;;;;;;7.91;42.55;102958.44;5094017;28;20036;-72
2022/03/24 03:57:15;;;;;;;38.20;18.73;;;;;;;7.77;42.52;102961.22;5093916;28;20043;-72
2022/03/24 03:59:40;;;;;;;36.22;20.15;;;;;;;7.84;43.02;102954.00;5093886;28;20099;-71
2022/03/24 04:02:06;;;;;;;38.05;20.27;;;;;;;7.81;42.76;102962.50;5094155;28;20348;-72
2022/03/24 04:04:31;;;;;;;38.78;21.23;;;;;;;7.74;43.22;102961.59;5093600;28;20064;-71
2022/03/24 04:06:56;;;;;;;40.97;22.65;;;;;;;7.73;42.30;102962.63;5093414;28;20032;-72
2022/03/24 04:09:22;;;;;;;36.17;22.48;;;;;;;7.87;42.49;102964.44;5093382;28;20101;-71
2022/03/24 04:11:47;;;;;;;50.00;21.70;;;;;;;7.82;42.26;102965.00;5093427;28;20067;-72
2022/03/24 04:14:13;;;;;;;41.45;21.02;;;;;;;7.28;44.80;102963.00;5093467;28;20081;-71
2022/03/24 04:16:39;;;;;;;42.83;21.38;;;;;;;7.84;43.43;102962.09;5092658;28;20052;-72
2022/03/24 04:19:05;;;;;;;39.63;20.55;;;;;;;7.94;42.77;102973.41;5093004;28;20040;-71
2022/03/24 04:21:31;;;;;;;36.90;20.45;;;;;;;7.40;44.74;102969.59;5108172;28;20075;-71
2022/03/24 04:23:56;;;;;;;42.75;22.17;;;;;;;7.62;42.97;102960.47;5092849;28;20486;-72
2022/03/24 04:26:22;;;;;;;45.85;20.70;;;;;;;7.59;42.54;102966.22;5093101;28;20473;-71
2022/03/24 04:28:47;;;;;;;40.85;22.17;;;;;;;7.46;42.01;102968.81;5092793;28;20036;-71
2022/03/24 04:31:13;;;;;;;47.17;23.00;;;;;;;7.48;42.56;102959.50;5108310;28;20074;-72
2022/03/24 04:33:38;;;;;;;36.80;21.17;;;;;;;7.46;42.82;102966.13;5113280;28;20107;-72
2022/03/24 04:36:08;;;;;;;41.38;21.17;;;;;;;7.45;42.32;102956.31;5109293;28;20036;-72
2022/03/24 04:38:34;;;;;;;42.55;21.45;;;;;;;7.50;41.99;102954.75;5092933;28;20028;-71
2022/03/24 04:40:59;;;;;;;34.50;19.75;;;;;;;7.47;42.12;102959.66;5092826;28;20059;-72
2022/03/24 04:43:25;;;;;;;38.17;21.67;;;;;;;7.57;41.96;102966.44;5092609;28;20432;-71
2022/03/24 04:45:50;;;;;;;36.45;21.80;;;;;;;7.38;42.01;102961.69;5092390;28;20031;-73
2022/03/24 04:48:15;;;;;;;37.90;19.48;;;;;;;7.33;41.88;102957.84;5092605;28;20036;-72
2022/03/24 04:50:41;;;;;;;35.65;19.92;;;;;;;7.48;41.72;102961.34;5092320;28;20111;-71
2022/03/24 04:53:07;;;;;;;35.35;19.35;;;;;;;7.32;42.26;102970.53;5092044;28;20036;-72
2022/03/24 04:55:33;;;;;;;38.75;20.75;;;;;;;7.20;43.45;102961.28;5092145;28;20121;-71
2022/03/24 04:57:58;;;;;;;43.90;21.30;;;;;;;7.11;43.75;102954.28;5074084;28;20040;-72
2022/03/24 05:00:24;;;;;;;32.53;19.38;;;;;;;7.28;41.70;102960.31;5092089;28;20115;-71
2022/03/24 05:02:49;;;;;;;33.60;20.27;;;;;;;7.27;41.82;102961.34;5075466;28;20363;-72
2022/03/24 05:05:18;;;;;;;34.97;19.67;;;;;;;7.38;41.68;102961.69;5072442;28;20115;-72
2022/03/24 05:07:43;;;;;;;35.30;20.00;;;;;;;7.11;41.61;102965.94;5071917;28;20278;-71
2022/03/24 05:10:10;;;;;;;38.70;20.63;;;;;;;7.23;41.69;102963.56;5071678;28;20549;-73
2022/03/24 05:12:38;;;;;;;33.28;19.60;;;;;;;7.23;44.02;102964.41;5071680;28;20195;-72
2022/03/24 05:15:04;;;;;;;34.22;19.77;;;;;;;7.39;42.56;102968.75;5071930;28;20040;-72
2022/03/24 05:17:30;;;;;;;37.08;21.13;;;;;;;7.04;42.62;102970.44;5097298;28;20100;-71
2022/03/24 05:19:56;;;;;;;30.45;17.85;;;;;;;7.31;42.83;102963.44;5090690;28;20570;-72
2022/03/24 05:22:22;;;;;;;34.88;18.73;;;;;;;7.32;43.63;102967.00;5091658;28;20090;-71
2022/03/24 05:24:47;;;;;;;29.70;18.70;;;;;;;7.31;43.43;102970.72;5091642;28;20047;-71
2022/03/24 05:27:13;;;;;;;37.30;20.83;;;;;;;7.18;42.56;102974.97;5103508;27;20043;-72
2022/03/24 05:29:39;;;;;;;37.60;21.15;;;;;;;6.91;45.02;102967.53;5106851;28;20016;-72
2022/03/24 05:32:05;;;;;;;37.70;20.67;;;;;;;7.32;43.62;102967.84;5091758;28;20024;-72
2022/03/24 05:34:32;;;;;;;39.63;22.58;;;;;;;7.26;43.23;102976.72;5093977;28;20066;-72
2022/03/24 05:36:57;;;;;;;37.13;20.25;;;;;;;7.21;43.96;102974.56;5098187;28;20036;-72
2022/03/24 05:39:23;;;;;;;33.42;21.67;;;;;;;7.10;44.38;102974.22;5095287;28;20057;-72
2022/03/24 05:41:48;;;;;;;45.67;24.33;;;;;;;7.45;42.88;102970.69;5090855;28;20405;-72
2022/03/24 05:44:13;;;;;;;36.47;21.08;;;;;;;7.32;42.77;102967.00;5091784;28;20051;-71
2022/03/24 05:46:42;;;;;;;41.15;23.10;;;;;;;7.57;42.59;102968.28;5091332;28;20139;-73
2022/03/24 05:49:09;;;;;;;36.30;22.65;;;;;;;7.36;42.54;102968.28;5091478;28;20044;-72
2022/03/24 05:51:36;;;;;;;35.08;22.08;;;;;;;7.51;42.31;102975.31;5091050;28;20063;-71
2022/03/24 05:54:03;;;;;;;43.85;22.30;;;;;;;7.41;43.52;102976.63;5091426;28;20042;-71
2022/03/24 05:56:29;;;;;;;43.15;23.35;;;;;;;7.15;43.39;102975.31;5091361;28;20132;-72
2022/03/24 05:58:55;;;;;;;44.83;22.77;;;;;;;6.67;45.09;102978.63;5090933;28;20060;-71
2022/03/24 06:01:23;;;;;;;36.90;21.23;;;;;;;7.09;44.25;102981.47;5092721;28;20055;-72
2022/03/24 06:03:51;;;;;;;37.50;21.63;;;;;;;7.22;42.72;102983.50;5100807;28;20039;-71
2022/03/24 06:06:17;;;;;;;41.28;23.50;;;;;;;7.38;43.72;102977.03;5101239;28;20031;-71
2022/03/24 06:08:43;;;;;;;43.85;22.65;;;;;;;7.38;43.53;102979.75;5097248;28;20508;-70
2022/03/24 06:11:14;;;;;;;44.92;24.42;;;;;;;7.52;43.33;102978.84;5105172;28;20063;-70
2022/03/24 06:13:41;;;;;;;42.85;24.45;;;;;;;7.46;43.13;102975.06;5103731;28;20059;-71
2022/03/24 06:16:06;;;;;;;50.13;25.52;;;;;;;7.51;42.81;102979.88;5101733;28;20035;-72
2022/03/24 06:18:32;;;;;;;51.15;27.05;;;;;;;6.63;45.16;102992.69;5094328;28;20040;-72
2022/03/24 06:20:59;;;;;;;45.33;26.83;;;;;;;7.09;44.50;102988.72;5086386;28;20427;-71
2022/03/24 06:23:25;;;;;;;46.08;26.58;;;;;;;7.41;44.09;102995.53;5091834;28;20047;-79
2022/03/24 06:25:51;;;;;;;44.80;26.15;;;;;;;7.20;44.45;102991.81;5089189;28;20031;-72
2022/03/24 06:28:16;;;;;;;45.40;27.23;;;;;;;7.10;45.10;102998.53;5088601;28;20409;-71
2022/03/24 06:30:41;;;;;;;57.95;26.70;;;;;;;7.08;45.37;102992.47;5088638;28;20032;-72
2022/03/24 06:33:07;;;;;;;48.80;27.05;;;;;;;6.97;45.89;102995.63;5089902;28;20484;-72
2022/03/24 06:35:32;;;;;;;47.22;28.48;;;;;;;7.59;44.30;102994.09;5103872;28;20063;-72
2022/03/24 06:37:58;;;;;;;54.78;26.55;;;;;;;7.92;42.79;102997.94;5098811;28;20120;-71
2022/03/24 06:40:23;;;;;;;52.38;26.98;;;;;;;7.78;44.08;103001.56;5100691;28;20115;-71
2022/03/24 06:42:49;;;;;;;44.67;24.77;;;;;;;8.04;43.17;103001.78;5099817;28;20491;-71
2022/03/24 06:45:15;;;;;;;53.00;28.27;;;;;;;7.78;44.18;102996.16;5098748;28;20066;-73
2022/03/24 06:47:41;;;;;;;52.90;27.08;;;;;;;8.26;43.02;103004.44;5093670;28;20493;-73
2022/03/24 06:50:10;;;;;;;51.20;29.27;;;;;;;8.51;42.88;103003.84;5090634;28;20028;-71
2022/03/24 06:52:36;;;;;;;55.13;28.17;;;;;;;8.30;43.35;103008.47;5088572;28;20418;-71
2022/03/24 06:55:02;;;;;;;45.35;27.10;;;;;;;8.50;43.28;103001.34;5089500;28;20032;-72
2022/03/24 06:57:27;;;;;;;50.03;28.73;;;;;;;8.39;44.11;103005.41;5109024;28;20087;-72
2022/03/24 06:59:53;;;;;;;55.83;30.38;;;;;;;8.74;42.50;103003.56;5092133;28;20353;-70
2022/03/24 07:02:18;;;;;;;58.33;29.52;;;;;;;8.98;42.60;102995.75;5111021;28;20038;-71
2022/03/24 07:04:44;;;;;;;50.17;28.92;;;;;;;9.02;42.70;102995.38;5110569;28;20094;-71
2022/03/24 07:07:09;;;;;;;51.00;28.05;;;;;;;9.09;41.66;102993.53;5093609;28;20086;-70
2022/03/24 07:09:35;;;;;;;54.65;29.80;;;;;;;9.25;41.24;102999.41;5095393;28;20432;-72
2022/03/24 07:12:02;;;;;;;50.67;28.77;;;;;;;9.29;41.54;102997.94;5095654;28;20500;-72
2022/03/24 07:14:28;;;;;;;53.45;31.00;;;;;;;9.36;41.00;103001.53;5100564;28;20262;-72
2022/03/24 07:16:54;;;;;;;56.22;30.65;;;;;;;9.45;41.45;103013.06;5094780;28;20098;-72
2022/03/24 07:19:19;;;;;;;47.60;29.85;;;;;;;9.54;40.66;103012.66;5100988;28;20046;-72
2022/03/24 07:21:45;;;;;;;59.40;32.97;;;;;;;9.78;41.27;103009.34;5101351;28;20111;-71
2022/03/24 07:24:11;;;;;;;55.67;30.42;;;;;;;9.53;42.31;103010.97;5092177;28;20028;-71
2022/03/24 07:26:36;;;;;;;64.10;32.63;;;;;;;9.65;42.68;103008.50;5093047;28;20067;-71
2022/03/24 07:29:02;;;;;;;59.92;34.25;;;;;;;9.55;42.86;103011.63;5094630;28;20111;-73
2022/03/24 07:31:28;;;;;;;52.55;32.42;;;;;;;10.09;41.66;103018.78;5093534;28;20267;-71
2022/03/24 07:33:55;;;;;;;56.50;32.97;;;;;;;10.42;40.53;103014.16;5093523;28;20032;-72
2022/03/24 07:36:22;;;;;;;56.22;32.05;;;;;;;10.55;40.17;103012.28;5074734;28;20036;-73
2022/03/24 07:38:49;;;;;;;53.92;32.65;;;;;;;10.58;39.84;103020.03;5093110;28;20048;-70
2022/03/24 07:41:15;;;;;;;54.95;32.97;;;;;;;10.78;40.03;103019.13;5092144;28;20035;-73
2022/03/24 07:43:41;;;;;;;57.50;34.25;;;;;;;10.77;39.72;103017.44;5086493;28;20477;-71
2022/03/24 07:46:06;;;;;;;54.40;32.70;;;;;;;10.97;39.07;103015.50;5091897;28;20034;-71
2022/03/24 07:48:31;;;;;;;60.38;36.60;;;;;;;10.98;38.88;103014.47;5091772;28;20068;-71
2022/03/24 07:51:00;;;;;;;65.25;34.85;;;;;;;10.92;39.47;103021.59;5088923;28;20039;-72
2022/03/24 07:53:28;;;;;;;58.78;35.72;;;;;;;11.22;39.19;103024.59;5092394;28;20063;-72
2022/03/24 07:55:55;;;;;;;61.00;33.90;;;;;;;10.81;39.71;103026.84;5092146;28;20044;-72
2022/03/24 07:58:21;;;;;;;61.70;35.83;;;;;;;11.25;39.41;103016.03;5092050;28;20082;-71
2022/03/24 08:00:47;;;;;;;65.57;36.80;;;;;;;11.63;38.66;103026.94;5091941;28;20040;-72
2022/03/24 08:03:14;;;;;;;58.83;35.63;;;;;;;11.78;38.20;103019.31;5090399;28;20185;-71
2022/03/24 08:05:41;;;;;;;60.85;34.60;;;;;;;12.05;37.47;103027.06;5091351;28;20028;-71
2022/03/24 08:08:09;;;;;;;57.95;37.70;;;;;;;12.14;35.87;103019.47;5092392;28;20426;-71
2022/03/24 08:10:35;;;;;;;63.42;38.72;;;;;;;12.22;35.45;103024.63;5091009;28;20501;-72
2022/03/24 08:13:04;;;;;;;54.00;36.78;;;;;;;12.41;35.12;103026.31;5090445;28;20078;-71
2022/03/24 08:15:29;;;;;;;64.75;37.13;;;;;;;12.63;34.37;103029.50;5096148;28;20115;-72
2022/03/24 08:17:55;;;;;;;61.00;36.03;;;;;;;12.71;33.70;103027.28;5090957;28;20062;-71
2022/03/24 08:20:20;;;;;;;59.65;36.65;;;;;;;12.61;35.50;103027.00;5091730;28;20042;-71
2022/03/24 08:22:46;;;;;;;63.15;37.42;;;;;;;12.78;35.68;103032.66;5090948;28;20052;-71
2022/03/24 08:25:11;;;;;;;51.40;35.20;;;;;;;12.72;35.59;103030.84;5090685;28;20122;-71
2022/03/24 08:27:37;;;;;;;56.00;34.78;;;;;;;13.02;35.27;103029.03;5088997;28;20051;-73
2022/03/24 08:30:05;;;;;;;55.83;35.83;;;;;;;13.13;34.99;103029.09;5091569;28;20115;-71
2022/03/24 08:32:31;;;;;;;53.65;35.03;;;;;;;13.18;33.97;103021.06;5091409;28;20039;-70
2022/03/24 08:34:57;;;;;;;64.90;36.55;;;;;;;13.37;33.60;103030.09;5091536;28;20036;-71
2022/03/24 08:37:22;;;;;;;62.40;37.17;;;;;;;13.62;33.71;103027.22;5091769;28;20058;-70
2022/03/24 08:39:48;;;;;;;66.22;37.90;;;;;;;13.57;33.70;103036.13;5091335;28;20051;-72
2022/03/24 08:42:13;;;;;;;62.22;36.10;;;;;;;12.87;36.15;103031.34;5091948;28;20101;-71
2022/03/24 08:44:39;;;;;;;55.35;36.72;;;;;;;13.79;34.04;103028.22;5082193;28;20028;-71
2022/03/24 08:47:05;;;;;;;61.53;36.13;;;;;;;13.54;33.32;103031.09;5100530;28;20076;-71
2022/03/24 08:49:31;;;;;;;60.80;36.92;;;;;;;13.87;31.76;103034.16;5102045;28;20028;-71
2022/03/24 08:51:57;;;;;;;58.85;34.83;;;;;;;13.94;33.56;103031.34;5097947;28;20103;-72
2022/03/24 08:54:23;;;;;;;54.65;34.55;;;;;;;14.66;32.59;103036.41;5096937;28;20043;-72
2022/03/24 08:56:48;;;;;;;57.67;35.17;;;;;;;14.68;32.00;103031.53;5091635;28;20533;-72
2022/03/24 08:59:13;;;;;;;58.38;34.63;;;;;;;14.84;31.11;103028.06;5092078;28;20597;-71
2022/03/24 09:01:41;;;;;;;53.75;35.38;;;;;;;15.47;30.81;103030.78;5090851;28;20055;-71
2022/03/24 09:04:06;;;;;;;53.20;34.03;;;;;;;14.89;31.01;103032.84;5091189;28;20036;-72
2022/03/24 09:06:32;;;;;;;56.38;35.60;;;;;;;15.06;30.12;103033.78;5091000;28;20036;-71
2022/03/24 09:08:57;;;;;;;53.28;33.80;;;;;;;15.22;30.92;103041.22;5090986;28;20024;-71
2022/03/24 09:11:23;;;;;;;59.42;34.40;;;;;;;15.45;30.60;103038.41;5093943;28;20039;-72
2022/03/24 09:13:49;;;;;;;60.30;36.15;;;;;;;15.86;29.99;103048.22;5081659;28;20066;-71
2022/03/24 09:16:15;;;;;;;53.83;31.70;;;;;;;15.95;27.49;103051.38;5090955;28;20056;-71
2022/03/24 09:18:42;;;;;;;58.75;32.92;;;;;;;16.28;27.47;103046.75;5097137;28;20481;-71
2022/03/24 09:21:08;;;;;;;48.45;31.73;;;;;;;16.23;27.21;103041.19;5094875;28;20109;-71
2022/03/24 09:23:33;;;;;;;56.92;32.13;;;;;;;16.07;27.74;103057.63;5091443;28;20461;-72
2022/03/24 09:25:59;;;;;;;54.33;32.47;;;;;;;15.47;29.04;103049.94;5090366;28;20032;-70
2022/03/24 09:28:26;;;;;;;53.67;32.90;;;;;;;16.13;27.92;103053.91;5090258;28;20067;-71
2022/03/24 09:30:54;;;;;;;57.33;33.47;;;;;;;16.77;27.32;103053.28;5091015;28;20044;-71
2022/03/24 09:33:20;;;;;;;59.80;30.50;;;;;;;16.90;26.89;103049.34;5097652;28;20369;-71
2022/03/24 09:35:46;;;;;;;59.28;32.72;;;;;;;16.89;27.29;103051.25;5071770;28;20105;-70
2022/03/24 09:38:11;;;;;;;50.70;31.52;;;;;;;17.06;26.36;103051.19;5090881;28;20031;-70
2022/03/24 09:40:37;;;;;;;50.25;30.23;;;;;;;17.19;25.56;103050.81;5090133;28;20409;-72
2022/03/24 09:43:04;;;;;;;44.33;29.88;;;;;;;17.14;26.28;103051.59;5092845;28;20169;-71
2022/03/24 09:45:30;;;;;;;48.80;30.98;;;;;;;16.39;26.93;103053.22;5089209;28;20032;-72
2022/03/24 09:47:56;;;;;;;50.25;29.15;;;;;;;17.46;25.98;103047.06;5088897;28;20048;-70
2022/03/24 09:50:24;;;;;;;53.28;28.77;;;;;;;17.65;25.18;103041.19;5089278;28;20028;-70
2022/03/24 09:52:51;;;;;;;46.28;28.48;;;;;;;17.12;26.22;103047.44;5088841;28;20040;-71
2022/03/24 09:55:17;;;;;;;46.20;29.02;;;;;;;17.25;25.50;103042.38;5088850;28;20051;-70
2022/03/24 09:57:44;;;;;;;51.42;25.75;;;;;;;16.88;26.11;103052.31;5088340;28;20528;-71
2022/03/24 10:00:10;;;;;;;50.45;27.98;;;;;;;16.18;26.95;103048.50;5089756;28;20044;-70
2022/03/24 10:02:36;;;;;;;45.88;25.75;;;;;;;16.59;26.88;103046.16;5090904;28;20332;-70
2022/03/24 10:05:02;;;;;;;45.60;26.08;;;;;;;16.85;25.73;103052.84;5091655;28;20103;-71
2022/03/24 10:07:29;;;;;;;42.53;26.92;;;;;;;16.86;26.25;103045.47;5090032;28;20021;-70
2022/03/24 10:09:56;;;;;;;40.10;26.25;;;;;;;18.00;24.28;103039.63;5088853;28;20098;-71
2022/03/24 10:12:25;;;;;;;48.53;27.50;;;;;;;17.94;24.20;103039.84;5086250;28;20061;-71
2022/03/24 10:15:12;;;;;;;50.45;28.52;;;;;;;17.28;25.25;103049.28;5088994;28;20077;-71
2022/03/24 10:17:40;;;;;;;44.53;26.75;;;;;;;18.19;23.81;103032.69;5088808;28;20020;-70
2022/03/24 10:20:07;;;;;;;45.85;26.55;;;;;;;18.84;23.02;103036.97;5084292;28;20446;-71
2022/03/24 10:22:33;;;;;;;42.67;26.80;;;;;;;17.67;24.73;103037.13;5088199;28;20040;-70
2022/03/24 10:24:59;;;;;;;49.83;28.63;;;;;;;17.50;25.48;103036.41;5088789;28;20038;-73
2022/03/24 10:27:28;;;;;;;47.58;28.15;;;;;;;18.26;24.60;103033.28;5084029;28;20274;-70
2022/03/24 10:29:59;;;;;;;49.05;28.73;;;;;;;18.60;24.65;103036.53;5088252;28;20039;-72
2022/03/24 10:32:30;;;;;;;49.83;28.80;;;;;;;18.14;24.94;103034.53;5088804;28;20058;-72
2022/03/24 10:34:58;;;;;;;41.17;26.50;;;;;;;17.62;24.17;103039.81;5089010;28;20028;-71
2022/03/24 10:37:26;;;;;;;51.63;28.85;;;;;;;17.85;25.02;103028.50;5088171;28;20032;-71
2022/03/24 10:39:57;;;;;;;51.38;27.55;;;;;;;18.10;24.44;103036.16;5088235;28;20044;-73
2022/03/24 10:42:27;;;;;;;45.47;28.80;;;;;;;18.63;23.85;103030.50;5088173;28;20389;-73
2022/03/24 10:45:05;;;;;;;49.05;31.52;;;;;;;19.68;23.86;103026.53;5088319;28;20035;-70
2022/03/24 10:47:48;;;;;;;41.83;27.88;;;;;;;18.81;23.31;103026.50;5088761;28;20512;-71
2022/03/24 10:50:25;;;;;;;48.50;27.48;;;;;;;18.07;24.90;103023.78;5083951;28;20493;-70
2022/03/24 10:52:53;;;;;;;53.45;29.40;;;;;;;17.85;25.84;103024.94;5088425;28;20401;-71
2022/03/24 10:55:43;;;;;;;45.05;27.25;;;;;;;19.14;23.21;103026.94;5088072;28;20032;-71
2022/03/24 10:58:14;;;;;;;45.33;27.50;;;;;;;19.79;22.70;103025.44;5083859;28;20047;-71
2022/03/24 11:00:41;;;;;;;37.13;24.33;;;;;;;19.12;22.41;103026.38;5087822;28;20587;-71
2022/03/24 11:03:07;;;;;;;49.53;26.23;;;;;;;20.38;21.77;103031.28;5087443;28;20035;-69
2022/03/24 11:05:33;;;;;;;41.97;27.08;;;;;;;20.49;21.15;103022.69;5093285;28;20059;-71
2022/03/24 11:07:58;;;;;;;44.45;27.10;;;;;;;19.90;21.49;103022.44;5087682;28;20152;-72
2022/03/24 11:10:24;;;;;;;39.97;26.20;;;;;;;20.42;21.48;103018.56;5087688;28;20033;-70
2022/03/24 11:12:54;;;;;;;45.92;27.67;;;;;;;18.96;22.27;103023.84;5088256;28;20408;-71
2022/03/24 11:15:20;;;;;;;41.50;26.77;;;;;;;18.40;22.66;103015.25;5087811;28;20036;-71